Latest Weather Observations for Maryborough

IDQ60801

Issued at 10:05 am EST Saturday 1 November 2014 (issued every 30 minutes, with the page automatically refreshed every 10 minutes)

About weather observations | Map of weather stations | Latest weather observations for QLD | Other Formats
Station Details ID: 040126 Name: MARYBOROUGH Lat: -25.52 Lon: 152.72 Height: 10.28 m
Data from the previous 72 hours. | See also: Recent months at Maryborough
Date/Time
EST
Temp
°C
App
Temp
°C
Dew
Point
Rel
Hum
%
Delta-T
°C
Wind Press
QNH
hPa
Press
MSL
hPa
Rain
since 9 am
mm
Dir
 
Spd
km/h
Gust
km/h
Spd
kts
Gust
kts
01/10:00am 26.7 25.4 17.2 56 5.9 N 20 28 11 15 1016.0 - 0.0
01/09:30am 27.7 25.6 17.2 52 6.6 N 24 35 13 19 1016.1 - 0.0
01/09:00am 26.6 24.9 17.1 56 5.9 N 22 32 12 17 1016.3 1016.2 0.0
01/08:30am 25.1 23.4 17.3 62 4.9 N 22 30 12 16 1016.4 - 0.0
01/08:00am 24.5 23.5 17.5 65 4.4 N 19 28 10 15 1016.3 - 0.0
01/07:30am 25.3 24.9 18.0 64 4.6 N 17 22 9 12 1016.2 - 0.0
01/07:00am 23.7 25.3 19.2 76 2.9 N 9 15 5 8 1015.9 - 0.0
01/06:30am 21.8 25.5 19.9 89 1.2 CALM 0 0 0 0 1015.7 - 0.0
01/06:00am 19.9 23.1 18.9 94 0.6 CALM 0 0 0 0 1015.5 1015.4 0.0
01/05:55am 19.8 23.0 18.8 94 0.6 CALM 0 0 0 0 1015.5 - 0.0
01/05:30am 19.4 21.2 18.4 94 0.6 NNE 6 7 3 4 1015.3 - 0.0
01/05:28am 19.4 21.2 18.4 94 0.6 NNE 6 7 3 4 1015.3 - 0.0
01/05:00am 19.7 22.9 18.9 95 0.5 CALM 0 0 0 0 1015.1 - 0.0
01/04:30am 19.5 22.7 18.8 96 0.4 CALM 0 0 0 0 1015.0 - 0.0
01/04:00am 19.2 21.8 18.5 96 0.4 NNE 2 6 1 3 1014.6 - 0.0
01/03:30am 19.1 22.1 18.4 96 0.4 CALM 0 0 0 0 1014.6 - 0.0
01/03:00am 18.4 20.0 17.9 97 0.3 NNE 6 7 3 4 1014.6 1014.5 0.0
01/02:38am 17.9 20.3 17.1 95 0.5 CALM 0 0 0 0 1014.4 - 0.0
01/02:30am 18.2 20.9 17.7 97 0.3 CALM 0 0 0 0 1014.4 - 0.0
01/02:00am 18.1 20.7 17.5 96 0.4 CALM 0 0 0 0 1014.8 - 0.0
01/01:00am 18.1 20.6 17.3 95 0.5 CALM 0 0 0 0 1015.2 - 0.0
01/12:48am 18.2 20.7 17.2 94 0.6 CALM 0 0 0 0 1015.1 - 0.0
01/12:43am 17.8 20.1 16.8 94 0.6 CALM 0 0 0 0 1015.2 - 0.0
01/12:30am 18.6 21.4 17.9 96 0.4 CALM 0 0 0 0 1015.3 - 0.0
01/12:19am 18.3 21.0 17.7 96 0.4 CALM 0 0 0 0 1015.4 - 0.0
01/12:00am 18.2 20.2 17.0 93 0.7 NNE 2 6 1 3 1015.7 1015.6 0.0
 
Date/Time
EST
Temp
°C
App
Temp
°C
Dew
Point
Rel
Hum
%
Delta-T
°C
Wind Press
QNH
hPa
Press
MSL
hPa
Rain
since 9 am
mm
Dir
 
Spd
km/h
Gust
km/h
Spd
kts
Gust
kts
31/11:52pm 18.6 20.2 17.8 95 0.5 NNE 6 7 3 4 1015.7 - 0.0
31/11:30pm 18.2 20.6 17.0 93 0.7 CALM 0 0 0 0 1015.8 - 0.0
31/11:00pm 18.9 21.6 17.7 93 0.7 CALM 0 0 0 0 1016.2 - 0.0
31/10:46pm 18.8 21.2 17.1 90 1.0 CALM 0 0 0 0 1016.2 - 0.0
31/10:30pm 19.4 20.9 17.7 90 1.0 NNE 6 7 3 4 1016.3 - 0.0
31/10:00pm 20.0 21.7 18.1 89 1.2 NNE 6 7 3 4 1016.3 - 0.0
31/09:30pm 20.6 22.5 18.5 88 1.3 NNE 6 7 3 4 1016.3 - 0.0
31/09:00pm 21.0 22.8 18.8 87 1.4 NNE 7 9 4 5 1016.2 1016.1 0.0
31/08:30pm 21.0 22.7 18.6 86 1.5 NNE 7 9 4 5 1016.0 - 0.0
31/08:00pm 21.4 23.1 18.0 81 2.1 NNE 6 7 3 4 1016.0 - 0.0
31/07:30pm 22.0 22.9 18.4 80 2.3 N 11 15 6 8 1015.5 - 0.0
31/07:00pm 22.5 23.4 18.5 78 2.5 N 11 17 6 9 1015.1 - 0.0
31/06:30pm 23.3 23.5 18.6 75 3.0 N 15 24 8 13 1014.8 - 0.0
31/06:00pm 23.7 23.8 18.4 72 3.3 N 15 22 8 12 1014.3 1014.2 0.0
31/05:30pm 24.8 23.9 18.3 67 4.1 N 20 30 11 16 1014.3 - 0.0
31/05:00pm 25.6 24.6 18.0 63 4.8 N 20 32 11 17 1014.1 - 0.0
31/04:30pm 26.2 24.7 17.8 60 5.3 N 22 30 12 16 1014.0 - 0.0
31/04:00pm 27.0 25.9 17.8 57 5.8 N 20 32 11 17 1013.9 - 0.0
31/03:30pm 27.2 26.4 17.9 56 5.9 NNE 19 30 10 16 1013.7 - 0.0
31/03:00pm 27.9 26.7 17.1 51 6.8 N 19 28 10 15 1013.8 1013.7 0.0
31/02:30pm 28.3 26.7 17.5 52 6.8 N 22 32 12 17 1013.7 - 0.0
31/02:00pm 28.4 27.1 17.3 51 7.0 NNE 20 30 11 16 1013.8 - 0.0
31/01:30pm 30.0 30.4 19.1 52 7.1 N 15 24 8 13 1013.9 - 0.0
31/01:00pm 29.0 28.5 16.9 48 7.6 N 15 24 8 13 1014.4 - 0.0
31/12:30pm 28.9 27.9 16.5 47 7.7 NNE 17 28 9 15 1014.9 - 0.0
31/12:00pm 28.2 26.8 17.1 51 7.0 N 20 28 11 15 1015.2 1015.1 0.0
31/11:30am 28.2 27.8 18.0 54 6.5 N 17 26 9 14 1015.6 - 0.0
31/11:00am 29.0 28.8 17.5 49 7.3 NNE 15 26 8 14 1015.9 - 0.0
31/10:30am 28.2 28.2 18.0 54 6.5 NNE 15 24 8 13 1016.3 - 0.0
31/10:00am 27.3 26.9 17.2 54 6.3 N 15 22 8 12 1016.6 - 0.0
31/09:30am 26.8 27.3 18.4 60 5.3 N 13 22 7 12 1016.8 - 0.0
31/09:00am 26.0 26.7 17.9 61 5.1 N 11 19 6 10 1016.9 1016.8 0.0
31/08:30am 27.0 26.6 18.8 60 5.3 N 19 22 10 12 1017.0 - 0.0
31/08:00am 25.3 26.8 19.0 68 4.0 N 9 15 5 8 1017.2 - 0.0
31/07:30am 24.6 26.5 19.0 71 3.6 N 7 11 4 6 1017.1 - 0.0
31/07:00am 23.9 26.8 19.8 78 2.6 NNW 4 9 2 5 1017.0 - 0.0
31/06:30am 22.3 25.9 19.7 85 1.7 CALM 0 6 0 3 1016.7 - 0.0
31/06:00am 21.2 25.2 20.5 96 0.5 CALM 0 4 0 2 1016.3 1016.2 0.0
31/05:35am 20.1 23.7 19.8 98 0.2 CALM 0 0 0 0 1016.2 - 0.0
31/05:30am 19.9 23.4 19.6 98 0.2 CALM 0 0 0 0 1016.2 - 0.0
31/05:11am 19.3 22.5 18.8 97 0.3 CALM 0 0 0 0 1015.9 - 0.0
31/05:00am 19.0 22.0 18.5 97 0.3 CALM 0 0 0 0 1015.7 - 0.0
31/04:50am 18.8 21.7 18.3 97 0.3 CALM 0 4 0 2 1015.5 - 0.0
31/04:30am 18.4 19.8 17.8 96 0.4 SE 7 7 4 4 1015.4 - 0.0
31/04:00am 18.5 21.2 17.7 95 0.5 CALM 0 0 0 0 1015.4 - 0.0
31/03:41am 18.6 21.3 17.8 95 0.5 CALM 0 0 0 0 1015.0 - 0.0
31/03:30am 18.7 21.5 17.9 95 0.5 CALM 0 0 0 0 1015.0 - 0.0
31/03:11am 18.7 21.5 17.9 95 0.5 CALM 0 0 0 0 1014.8 - 0.0
31/03:00am 18.7 21.4 17.7 94 0.6 CALM 0 0 0 0 1014.8 1014.7 0.0
31/02:30am 19.5 22.6 18.7 95 0.5 CALM 0 0 0 0 1014.9 - 0.0
31/02:00am 19.5 22.4 18.3 93 0.7 CALM 0 0 0 0 1014.9 - 0.0
31/01:53am 19.4 22.3 18.2 93 0.7 CALM 0 0 0 0 1014.9 - 0.0
31/01:50am 19.5 22.4 18.2 92 0.8 CALM 0 0 0 0 1014.9 - 0.0
31/01:38am 19.8 23.0 18.8 94 0.6 CALM 0 0 0 0 1015.2 - 0.0
31/01:30am 19.5 22.3 18.0 91 0.9 CALM 0 0 0 0 1015.3 - 0.0
31/01:00am 20.2 23.1 18.3 89 1.2 CALM 0 0 0 0 1015.4 - 0.0
31/12:30am 20.8 24.1 19.1 90 1.1 CALM 0 0 0 0 1015.4 - 0.0
31/12:00am 20.7 23.8 18.6 88 1.3 CALM 0 0 0 0 1015.5 1015.4 0.0
 
Date/Time
EST
Temp
°C
App
Temp
°C
Dew
Point
Rel
Hum
%
Delta-T
°C
Wind Press
QNH
hPa
Press
MSL
hPa
Rain
since 9 am
mm
Dir
 
Spd
km/h
Gust
km/h
Spd
kts
Gust
kts
30/11:30pm 21.0 22.9 18.6 86 1.5 NE 6 7 3 4 1015.5 - 0.0
30/11:00pm 21.6 23.3 18.4 82 2.0 NE 7 7 4 4 1015.7 - 0.0
30/10:30pm 22.8 26.2 19.4 81 2.2 CALM 0 0 0 0 1016.2 - 0.0
30/10:00pm 22.7 24.9 19.3 81 2.2 E 6 7 3 4 1016.4 - 0.0
30/09:30pm 22.8 25.0 19.2 80 2.3 E 6 7 3 4 1016.3 - 0.0
30/09:00pm 22.5 24.7 19.1 81 2.2 NE 6 6 3 3 1016.1 1016.0 0.0
30/08:30pm 22.8 24.6 18.8 78 2.5 NE 7 9 4 5 1015.8 - 0.0
30/08:00pm 23.1 25.1 19.1 78 2.5 NNE 7 11 4 6 1015.6 - 0.0
30/07:30pm 22.9 24.9 19.1 79 2.4 N 7 9 4 5 1015.4 - 0.0
30/07:00pm 22.9 24.3 18.7 77 2.7 N 9 11 5 6 1014.8 - 0.0
30/06:30pm 23.2 24.4 18.3 74 3.1 NNE 9 11 5 6 1014.3 - 0.0
30/06:00pm 24.4 25.0 18.6 70 3.7 NNE 13 20 7 11 1013.9 1013.8 0.0
30/05:30pm 25.6 25.5 18.8 66 4.3 NNE 17 24 9 13 1013.5 - 0.0
30/05:00pm 26.6 26.9 18.7 62 5.0 NE 15 22 8 12 1013.3 - 0.0
30/04:30pm 26.7 26.5 18.6 61 5.2 NNE 17 26 9 14 1013.1 - 0.0
30/04:00pm 27.7 27.7 19.0 59 5.6 NE 17 26 9 14 1012.9 - 0.0
30/03:30pm 27.7 27.2 19.0 59 5.6 ENE 20 28 11 15 1012.8 - 0.0
30/03:00pm 27.5 26.6 19.0 59 5.5 E 22 32 12 17 1013.0 1012.9 0.0
30/02:30pm 27.9 26.7 18.3 56 6.1 E 22 33 12 18 1013.0 - 0.0
30/02:00pm 29.4 29.0 18.8 53 6.8 ENE 19 26 10 14 1013.2 - 0.0
30/01:30pm 28.9 28.9 17.1 49 7.4 ESE 13 20 7 11 1013.6 - 0.0
30/01:00pm 30.5 31.1 19.5 51 7.2 ESE 15 22 8 12 1013.8 - 0.0
30/12:30pm 29.8 30.4 19.5 54 6.7 SE 15 24 8 13 1014.2 - 0.0
30/12:00pm 28.3 28.8 18.4 55 6.3 SE 13 24 7 13 1014.8 1014.7 0.0
30/11:30am 29.3 29.9 18.7 52 6.8 SSE 13 20 7 11 1015.4 - 0.0
30/11:00am 27.2 28.4 18.2 58 5.7 S 9 15 5 8 1016.1 - 0.0
30/10:30am 27.2 27.8 17.7 56 6.0 S 11 19 6 10 1016.6 - 0.0
30/10:00am 26.5 27.8 18.4 61 5.2 E 9 17 5 9 1016.9 - 0.0
30/09:30am 27.3 29.0 19.4 62 5.1 SSE 9 17 5 9 1017.0 - 0.0
30/09:00am 26.3 26.7 18.9 63 4.7 ESE 15 20 8 11 1017.1 1017.0 0.0
30/08:30am 24.6 25.8 19.0 71 3.6 ESE 11 17 6 9 1017.3 - 0.0
30/08:00am 24.6 26.2 19.2 72 3.5 SSE 9 17 5 9 1017.3 - 0.0
30/07:30am 23.5 24.6 18.8 75 3.0 S 11 17 6 9 1017.2 - 0.0
30/07:00am 22.0 23.7 19.4 85 1.7 S 9 13 5 7 1017.2 - 0.0
30/06:30am 20.8 21.8 18.6 87 1.4 S 11 15 6 8 1017.0 - 0.0
30/06:00am 20.0 21.8 18.8 93 0.7 S 7 9 4 5 1016.7 1016.6 0.0
30/05:30am 19.0 20.5 18.0 94 0.6 S 7 9 4 5 1016.2 - 0.0
30/05:11am 19.1 20.7 18.3 95 0.5 S 7 9 4 5 1015.9 - 0.0
30/05:00am 19.4 21.4 18.7 96 0.4 S 6 7 3 4 1015.8 - 0.0
30/04:33am 19.2 20.5 18.4 95 0.5 S 9 11 5 6 1015.4 - 0.0
30/04:30am 19.2 20.5 18.4 95 0.5 S 9 11 5 6 1015.4 - 0.0
30/04:05am 19.3 20.6 18.5 95 0.5 S 9 11 5 6 1015.3 - 0.0
30/04:00am 19.2 20.5 18.4 95 0.5 S 9 11 5 6 1015.3 - 0.0
30/03:30am 19.5 21.0 18.8 96 0.4 S 9 11 5 6 1015.0 - 0.0
30/03:08am 19.4 20.8 18.6 95 0.5 S 9 11 5 6 1015.0 - 0.0
30/03:00am 19.5 20.9 18.7 95 0.5 S 9 11 5 6 1015.0 1014.9 0.0
30/02:37am 19.7 21.8 18.9 95 0.5 S 6 7 3 4 1015.1 - 0.0
30/02:30am 19.5 21.5 18.7 95 0.5 S 6 7 3 4 1015.1 - 0.0
30/02:00am 19.8 21.7 19.0 95 0.5 S 7 7 4 4 1015.2 - 0.0
30/01:30am 19.9 22.0 18.9 94 0.6 S 6 6 3 3 1015.2 - 0.0
30/01:05am 19.8 22.1 18.6 93 0.7 S 4 6 2 3 1015.4 - 0.0
30/01:03am 19.8 22.1 18.6 93 0.7 S 4 6 2 3 1015.4 - 0.0
30/01:00am 19.9 22.3 18.9 94 0.6 S 4 6 2 3 1015.4 - 0.0
30/12:44am 19.9 22.0 18.9 94 0.6 S 6 7 3 4 1015.4 - 0.0
30/12:30am 20.1 22.1 19.1 94 0.6 S 7 9 4 5 1015.5 - 0.0
30/12:07am 19.7 21.4 18.4 92 0.8 S 7 9 4 5 1015.6 - 0.0
30/12:00am 20.2 22.2 19.2 94 0.6 S 7 9 4 5 1015.8 1015.7 0.0
 
Date/Time
EST
Temp
°C
App
Temp
°C
Dew
Point
Rel
Hum
%
Delta-T
°C
Wind Press
QNH
hPa
Press
MSL
hPa
Rain
since 9 am
mm
Dir
 
Spd
km/h
Gust
km/h
Spd
kts
Gust
kts
29/11:59pm 20.2 22.2 19.2 94 0.6 S 7 9 4 5 1015.8 - 0.0
29/11:38pm 19.7 21.3 18.2 91 0.9 S 7 9 4 5 1015.9 - 0.0
29/11:30pm 20.1 21.9 18.8 92 0.8 S 7 9 4 5 1016.0 - 0.0
29/11:00pm 20.3 22.0 18.6 90 1.1 S 7 9 4 5 1016.1 - 0.0
29/10:30pm 20.7 22.2 19.0 90 1.1 S 9 11 5 6 1016.3 - 0.0
29/10:02pm 21.0 23.1 19.3 90 1.1 SSE 7 11 4 6 1016.4 - 0.0
29/10:00pm 21.0 23.1 19.3 90 1.1 SSE 7 11 4 6 1016.3 - 0.0
29/09:30pm 20.6 22.4 18.7 89 1.2 SE 7 11 4 6 1016.2 - 0.0
29/09:08pm 20.4 23.3 18.3 88 1.3 CALM 0 0 0 0 1016.2 - 0.0
29/09:00pm 21.0 24.0 19.3 90 1.1 ESE 2 6 1 3 1016.2 1016.1 0.0
29/08:30pm 20.8 22.5 18.6 87 1.4 ESE 7 9 4 5 1016.2 - 0.0
29/08:00pm 21.2 23.0 18.4 84 1.7 ESE 6 7 3 4 1016.0 - 0.0
29/07:30pm 21.5 22.9 18.7 84 1.8 ESE 9 11 5 6 1015.6 - 0.0
29/07:00pm 22.3 23.1 19.1 82 2.0 ESE 13 17 7 9 1015.2 - 0.0
29/06:30pm 22.8 23.6 19.0 79 2.4 ESE 13 17 7 9 1015.0 - 0.0
29/06:00pm 23.5 23.5 19.0 76 2.9 ESE 17 22 9 12 1014.6 1014.5 0.0
29/05:30pm 24.5 23.8 18.7 70 3.7 ESE 20 28 11 15 1014.2 - 0.0
29/05:00pm 25.4 24.5 19.1 68 4.0 ESE 22 32 12 17 1014.0 - 0.0
29/04:30pm 25.9 24.3 18.3 63 4.8 ESE 24 35 13 19 1013.4 - 0.0
29/04:00pm 26.9 25.2 18.2 59 5.5 ESE 24 32 13 17 1013.0 - 0.0
29/03:30pm 27.7 25.7 18.4 57 5.9 ESE 26 39 14 21 1012.5 - 0.0
29/03:00pm 28.6 25.6 17.8 52 6.9 E 30 43 16 23 1012.3 1012.2 0.0
29/02:30pm 29.1 25.4 16.0 45 8.1 E 30 41 16 22 1012.1 - 0.0
29/02:00pm 30.5 26.6 16.5 43 8.8 ESE 32 43 17 23 1012.2 - 0.0
29/01:30pm 30.5 27.1 15.8 41 9.1 ESE 28 39 15 21 1012.2 - 0.0
29/01:00pm 30.7 26.9 14.8 38 9.7 E 28 37 15 20 1012.3 - 0.0
29/12:30pm 31.6 29.1 15.1 36 10.2 E 22 41 12 22 1012.3 - 0.0
29/12:00pm 32.0 29.6 12.8 31 11.4 E 17 26 9 14 1012.5 1012.4 0.0
29/11:30am 32.0 29.6 13.7 33 11.1 E 19 28 10 15 1012.7 - 0.0
29/11:00am 31.3 30.1 16.1 40 9.5 ENE 17 22 9 12 1013.1 - 0.0
29/10:30am 31.1 31.6 20.1 52 7.3 ENE 17 22 9 12 1013.5 - 0.0

Other Formats:

Comma delimited format used in spreadsheet applications
http://www.bom.gov.au/fwo/IDQ60801/IDQ60801.94567.axf

JavaScript Object Notation format (JSON) in row-major order
http://www.bom.gov.au/fwo/IDQ60801/IDQ60801.94567.json